Time;durP1;ratioP1;P1;durP2;ratioP2;P2;SDS_P1;SDS_P2;PMS_P1;PMS_P2;Temp;Humidity;BMP_temperature;BMP_pressure;BME280_temperature;BME280_humidity;BME280_pressure;Samples;Min_cycle;Max_cycle;Signal;HPM_P1;HPM_P2
2023/01/08 00:01:43;;;;;;;17.05;8.20;;;;;;;-6.89;61.63;101693.30;1705712;82;21054;-69
2023/01/08 00:04:10;;;;;;;13.00;8.18;;;;;;;-6.90;61.75;101694.56;1689015;82;21063;-70
2023/01/08 00:06:37;;;;;;;15.83;8.48;;;;;;;-6.90;61.78;101690.70;1728096;81;21086;-71
2023/01/08 00:09:05;;;;;;;14.93;8.58;;;;;;;-6.90;61.76;101695.84;1722442;81;21043;-70
2023/01/08 00:11:33;;;;;;;13.55;7.85;;;;;;;-6.93;61.73;101701.39;1710064;81;22735;-71
2023/01/08 00:14:00;;;;;;;15.23;8.70;;;;;;;-6.94;61.67;101698.38;1725194;81;21620;-70
2023/01/08 00:16:29;;;;;;;14.50;8.60;;;;;;;-6.98;61.65;101695.73;1712038;82;21066;-71
2023/01/08 00:18:57;;;;;;;14.83;8.30;;;;;;;-7.01;61.69;101701.70;1698941;83;21067;-70
2023/01/08 00:21:23;;;;;;;14.85;8.13;;;;;;;-7.00;61.62;101703.85;1710747;82;21004;-69
2023/01/08 00:23:50;;;;;;;15.53;8.55;;;;;;;-7.09;61.43;101707.57;1715658;82;22531;-71
2023/01/08 00:26:21;;;;;;;15.13;8.95;;;;;;;-7.16;61.40;101707.03;1691438;83;21074;-70
2023/01/08 00:28:49;;;;;;;14.07;8.25;;;;;;;-7.24;61.41;101705.63;1693694;83;21059;-70
2023/01/08 00:31:17;;;;;;;14.53;8.28;;;;;;;-7.30;61.49;101700.01;1695502;83;21140;-70
2023/01/08 00:33:43;;;;;;;14.30;8.18;;;;;;;-7.32;61.64;101686.72;1688022;83;21024;-70
2023/01/08 00:36:15;;;;;;;14.98;8.45;;;;;;;-7.29;61.78;101693.17;1699917;83;22016;-69
2023/01/08 00:38:44;;;;;;;14.35;8.43;;;;;;;-7.28;61.88;101694.89;1707064;83;21475;-71
2023/01/08 00:41:12;;;;;;;13.28;8.08;;;;;;;-7.27;61.99;101694.05;1699154;83;21079;-71
2023/01/08 00:43:40;;;;;;;15.93;9.13;;;;;;;-7.26;62.05;101697.05;1698748;83;21035;-70
2023/01/08 00:46:07;;;;;;;15.45;8.58;;;;;;;-7.26;62.08;101700.48;1689401;83;21458;-70
2023/01/08 00:48:37;;;;;;;28.70;14.53;;;;;;;-7.25;62.15;101702.20;1699247;83;22424;-70
2023/01/08 00:51:07;;;;;;;21.00;10.95;;;;;;;-7.28;62.09;101701.31;1680569;84;21095;-70
2023/01/08 00:53:36;;;;;;;16.70;9.28;;;;;;;-7.29;62.25;101699.17;1697920;83;21123;-70
2023/01/08 00:56:06;;;;;;;12.68;8.10;;;;;;;-7.29;62.29;101702.16;1690242;82;21559;-70
2023/01/08 00:58:33;;;;;;;12.50;7.50;;;;;;;-7.29;62.39;101704.72;1716190;82;21007;-70
2023/01/08 01:01:00;;;;;;;14.13;8.23;;;;;;;-7.28;62.42;101706.44;1699537;83;21903;-70
2023/01/08 01:03:26;;;;;;;13.83;7.35;;;;;;;-7.27;62.50;101697.91;1679745;84;21047;-70
2023/01/08 01:06:04;;;;;;;14.47;7.90;;;;;;;-7.25;62.43;101698.36;1698971;84;21068;-70
2023/01/08 01:08:34;;;;;;;14.53;7.87;;;;;;;-7.27;62.33;101697.91;1700113;84;21083;-69
2023/01/08 01:11:07;;;;;;;12.03;7.10;;;;;;;-7.30;62.34;101696.16;1721597;81;21011;-69
2023/01/08 01:13:39;;;;;;;13.28;8.08;;;;;;;-7.31;62.30;101689.72;1698419;83;21811;-70
2023/01/08 01:16:07;;;;;;;14.58;8.20;;;;;;;-7.33;62.29;101692.28;1686319;82;21656;-69
2023/01/08 01:18:34;;;;;;;12.30;7.00;;;;;;;-7.32;62.42;101686.72;1683929;84;21082;-70
2023/01/08 01:21:01;;;;;;;13.90;7.87;;;;;;;-7.31;62.48;101689.30;1712891;83;21029;-71
2023/01/08 01:23:30;;;;;;;11.18;6.80;;;;;;;-7.30;62.50;101688.88;1703687;82;21051;-70
2023/01/08 01:25:57;;;;;;;12.82;7.40;;;;;;;-7.35;62.18;101680.23;1687897;82;21944;-71
2023/01/08 01:28:24;;;;;;;11.97;6.47;;;;;;;-7.43;62.25;101681.83;1694472;82;21009;-70
2023/01/08 01:30:59;;;;;;;10.88;6.80;;;;;;;-7.45;62.29;101677.09;1708741;82;21098;-70
2023/01/08 01:33:29;;;;;;;12.10;7.35;;;;;;;-7.47;62.38;101678.78;1708346;82;21149;-70
2023/01/08 01:36:03;;;;;;;14.30;6.85;;;;;;;-7.47;62.42;101674.51;1700105;82;21073;-69
2023/01/08 01:38:30;;;;;;;;;;;;;;;-7.48;62.43;101682.19;1671877;82;22555;-70
2023/01/08 01:40:59;;;;;;;12.80;7.55;;;;;;;-7.52;62.41;101673.17;1710559;82;21696;-71
2023/01/08 01:43:42;;;;;;;12.63;7.58;;;;;;;-7.55;62.45;101674.39;1696672;82;21035;-70
2023/01/08 01:46:37;;;;;;;12.43;7.42;;;;;;;-7.58;62.43;101677.34;1706149;82;21071;-70
2023/01/08 01:49:09;;;;;;;13.85;7.37;;;;;;;-7.66;62.50;101678.49;1695980;82;21023;-71
2023/01/08 01:51:36;;;;;;;12.75;8.00;;;;;;;-7.67;62.66;101675.48;1697867;83;21813;-70
2023/01/08 01:54:03;;;;;;;14.23;7.80;;;;;;;-7.65;62.78;101677.65;1705878;82;21352;-70
2023/01/08 01:56:32;;;;;;;16.40;8.08;;;;;;;-7.63;62.84;101679.81;1704885;82;21027;-70
2023/01/08 01:58:58;;;;;;;15.20;8.00;;;;;;;-7.60;62.72;101682.45;1701093;82;21575;-71
2023/01/08 02:01:25;;;;;;;14.47;8.43;;;;;;;-7.57;62.86;101690.19;1707108;82;21023;-70
2023/01/08 02:03:51;;;;;;;13.83;8.40;;;;;;;-7.57;62.75;101686.34;1712435;82;21936;-69
2023/01/08 02:06:36;;;;;;;17.60;8.10;;;;;;;-7.59;62.66;101689.30;1702479;82;22132;-71
2023/01/08 02:09:08;;;;;;;17.25;8.78;;;;;;;-7.60;62.75;101693.99;1711438;82;21059;-70
2023/01/08 02:12:17;;;;;;;12.82;7.87;;;;;;;-7.62;62.72;101695.68;1706183;82;21054;-69
2023/01/08 02:15:13;;;;;;;14.20;8.60;;;;;;;-7.61;62.82;101697.41;1705135;82;21121;-70
2023/01/08 02:18:04;;;;;;;16.32;8.45;;;;;;;-7.60;62.76;101697.84;1700459;82;21927;-68
2023/01/08 02:20:58;;;;;;;13.72;7.97;;;;;;;-7.62;62.73;101703.80;1711975;82;21110;-69
2023/01/08 02:23:54;;;;;;;13.43;7.75;;;;;;;-7.62;62.68;101707.23;1704407;82;21090;-69
2023/01/08 02:26:32;;;;;;;12.78;7.08;;;;;;;-7.61;62.57;101705.10;1692205;82;21016;-69
2023/01/08 02:29:09;;;;;;;13.13;7.37;;;;;;;-7.60;62.49;101704.26;1681621;82;21074;-69
2023/01/08 02:31:39;;;;;;;12.40;6.97;;;;;;;-7.61;62.26;101702.53;1700228;82;21827;-69
2023/01/08 02:34:06;;;;;;;11.10;7.05;;;;;;;-7.58;62.38;101700.00;1702362;82;21130;-69
2023/01/08 02:36:43;;;;;;;9.83;5.70;;;;;;;-7.58;62.26;101700.00;1698673;82;21161;-70
2023/01/08 02:39:35;;;;;;;10.80;5.95;;;;;;;-7.55;62.23;101696.62;1699852;82;21003;-69
2023/01/08 02:42:12;;;;;;;10.75;5.62;;;;;;;-7.56;61.98;101685.49;1702640;81;21038;-68
2023/01/08 02:45:01;;;;;;;10.50;5.92;;;;;;;-7.57;61.85;101681.20;1721789;82;21829;-69
2023/01/08 02:47:44;;;;;;;12.23;6.35;;;;;;;-7.58;61.75;101688.46;1699509;81;21027;-69
2023/01/08 02:50:31;;;;;;;11.50;6.35;;;;;;;-7.57;61.68;101691.89;1701509;82;21015;-70
2023/01/08 02:53:17;;;;;;;11.78;6.33;;;;;;;-7.57;61.55;101694.03;1703012;81;21010;-69
2023/01/08 02:55:54;;;;;;;11.90;6.05;;;;;;;-7.58;61.50;101685.89;1699518;82;21026;-68
2023/01/08 02:58:21;;;;;;;12.23;6.97;;;;;;;-7.57;61.43;101681.63;1696887;82;22503;-70
2023/01/08 03:00:49;;;;;;;12.43;6.72;;;;;;;-7.56;61.38;101680.36;1699052;82;20981;-69
2023/01/08 03:03:23;;;;;;;12.35;6.45;;;;;;;-7.53;61.39;101684.67;1696121;82;21097;-67
2023/01/08 03:05:57;;;;;;;12.50;6.40;;;;;;;-7.51;61.39;101681.73;1684771;84;21080;-67
2023/01/08 03:08:24;;;;;;;9.20;5.92;;;;;;;-7.48;61.36;101683.47;1694913;82;21869;-68
2023/01/08 03:11:06;;;;;;;9.70;5.70;;;;;;;-7.47;61.32;101682.62;1706079;82;21839;-68
2023/01/08 03:14:16;;;;;;;11.10;6.42;;;;;;;-7.50;61.28;101677.90;1674068;83;21075;-68
2023/01/08 03:17:03;;;;;;;10.88;6.05;;;;;;;-7.46;61.27;101683.07;1706191;81;21043;-68
2023/01/08 03:19:35;;;;;;;11.57;6.00;;;;;;;-7.48;61.09;101681.77;1697329;83;21028;-68
2023/01/08 03:22:02;;;;;;;11.30;6.62;;;;;;;-7.53;60.79;101674.02;1698599;82;21113;-67
2023/01/08 03:24:33;;;;;;;12.75;5.97;;;;;;;-7.54;60.89;101676.53;1673215;83;21948;-68
2023/01/08 03:27:02;;;;;;;12.55;6.47;;;;;;;-7.52;60.87;101674.45;1693602;83;20991;-68
2023/01/08 03:29:29;;;;;;;11.80;6.33;;;;;;;-7.53;60.77;101681.72;1676357;83;21053;-68
2023/01/08 03:32:00;;;;;;;10.08;5.55;;;;;;;-7.52;60.77;101686.42;1699606;83;21046;-68
2023/01/08 03:34:27;;;;;;;10.72;6.17;;;;;;;-7.51;60.69;101687.73;1672473;83;21228;-68
2023/01/08 03:36:56;;;;;;;12.43;6.35;;;;;;;-7.52;60.59;101684.72;1686031;83;21957;-67
2023/01/08 03:39:29;;;;;;;10.15;5.55;;;;;;;-7.52;60.49;101686.00;1689296;83;21509;-68
2023/01/08 03:41:57;;;;;;;;;;;;;;;-7.53;60.45;101685.95;1695316;83;21089;-68
2023/01/08 03:44:24;;;;;;;12.45;5.70;;;;;;;-7.55;60.44;101683.79;1696572;83;21041;-67
2023/01/08 03:46:54;;;;;;;12.05;6.42;;;;;;;-7.57;60.39;101681.20;1708094;83;21067;-68
2023/01/08 03:49:22;;;;;;;11.50;6.05;;;;;;;-7.61;60.35;101677.30;1687592;83;21974;-68
2023/01/08 03:51:48;;;;;;;12.43;6.60;;;;;;;-7.65;60.24;101678.08;1699452;83;21101;-68
2023/01/08 03:54:20;;;;;;;12.18;6.15;;;;;;;-7.71;60.33;101672.45;1684819;83;21040;-67
2023/01/08 03:56:46;;;;;;;11.12;6.33;;;;;;;-7.70;60.47;101675.88;1685651;83;21090;-68
2023/01/08 03:59:13;;;;;;;12.45;5.78;;;;;;;-7.70;60.45;101675.45;1687109;83;21062;-68
2023/01/08 04:01:41;;;;;;;10.90;6.10;;;;;;;-7.68;60.42;101679.31;1690270;83;22705;-67
2023/01/08 04:04:07;;;;;;;11.00;5.80;;;;;;;-7.70;60.33;101681.86;1693342;83;21079;-67
2023/01/08 04:06:36;;;;;;;10.50;5.97;;;;;;;-7.72;60.38;101678.42;1677629;84;21133;-67
2023/01/08 04:09:03;;;;;;;11.18;6.00;;;;;;;-7.72;60.33;101678.42;1670417;84;21216;-67
2023/01/08 04:11:30;;;;;;;11.93;6.37;;;;;;;-7.73;60.26;101685.64;1679061;84;21023;-69
2023/01/08 04:13:57;;;;;;;10.72;5.70;;;;;;;-7.73;60.35;101690.77;1675728;84;22863;-66
2023/01/08 04:16:23;;;;;;;9.38;5.45;;;;;;;-7.72;60.15;101683.55;1682838;84;21074;-68
2023/01/08 04:18:50;;;;;;;9.50;5.50;;;;;;;-7.74;60.11;101686.48;1675712;84;21067;-69
2023/01/08 04:21:18;;;;;;;12.50;5.85;;;;;;;-7.76;59.94;101693.30;1690358;84;21102;-68
2023/01/08 04:23:46;;;;;;;9.18;5.42;;;;;;;-7.80;59.87;101687.69;1678353;84;21043;-69
2023/01/08 04:26:13;;;;;;;8.93;4.87;;;;;;;-7.82;59.79;101688.05;1668354;84;21852;-69
2023/01/08 04:28:40;;;;;;;11.45;6.08;;;;;;;-7.88;59.61;101685.41;1673042;83;21640;-67
2023/01/08 04:31:07;;;;;;;10.75;5.55;;;;;;;-7.89;59.65;101683.69;1672921;83;21102;-69
2023/01/08 04:33:35;;;;;;;9.30;5.37;;;;;;;-7.88;59.52;101694.38;1679126;83;21020;-68
2023/01/08 04:36:04;;;;;;;10.00;5.72;;;;;;;-7.92;59.39;101688.31;1671180;84;20995;-68
2023/01/08 04:38:31;;;;;;;12.58;6.03;;;;;;;-7.95;59.24;101691.27;1672568;83;22490;-69
2023/01/08 04:41:01;;;;;;;9.43;5.60;;;;;;;-7.97;59.08;101687.39;1674056;83;21061;-68
2023/01/08 04:43:28;;;;;;;11.68;6.08;;;;;;;-7.99;59.13;101687.80;1670507;83;21125;-71
2023/01/08 04:45:59;;;;;;;10.88;5.40;;;;;;;-8.00;59.22;101692.90;1678399;83;21082;-71
2023/01/08 04:48:27;;;;;;;12.80;7.00;;;;;;;-7.95;59.32;101698.95;1676319;83;21114;-71
2023/01/08 04:50:53;;;;;;;13.93;6.22;;;;;;;-7.95;59.44;101698.95;1675045;84;21827;-70
2023/01/08 04:53:20;;;;;;;11.18;5.83;;;;;;;-7.91;59.47;101704.17;1676078;84;21071;-70
2023/01/08 04:55:46;;;;;;;12.43;6.15;;;;;;;-7.92;59.33;101701.56;1672070;84;21099;-71
2023/01/08 04:58:13;;;;;;;10.28;5.25;;;;;;;-7.95;59.39;101711.35;1675597;84;21075;-69
2023/01/08 05:00:39;;;;;;;13.35;6.67;;;;;;;-7.94;59.38;101710.93;1683841;83;22212;-69
2023/01/08 05:03:06;;;;;;;12.82;6.25;;;;;;;-8.00;59.35;101710.84;1678955;83;21937;-71
2023/01/08 05:05:34;;;;;;;10.28;6.05;;;;;;;-8.01;59.41;101715.08;1682553;83;21059;-71
2023/01/08 05:08:01;;;;;;;12.73;6.10;;;;;;;-8.01;59.47;101709.95;1685032;84;21056;-71
2023/01/08 05:10:27;;;;;;;13.15;6.90;;;;;;;-8.02;59.42;101713.35;1676307;84;21150;-71
2023/01/08 05:13:00;;;;;;;14.50;6.95;;;;;;;-8.02;59.37;101718.48;1685262;84;21423;-71
2023/01/08 05:15:27;;;;;;;13.00;6.67;;;;;;;-8.06;59.26;101716.72;1667911;84;22573;-70
2023/01/08 05:18:00;;;;;;;16.15;7.20;;;;;;;-8.10;59.20;101730.33;1692287;84;21103;-71
2023/01/08 05:20:27;;;;;;;15.00;7.22;;;;;;;-8.13;59.17;101727.27;1674835;84;21061;-70
2023/01/08 05:22:53;;;;;;;15.55;7.60;;;;;;;-8.13;59.20;101728.97;1681384;84;21405;-70
2023/01/08 05:25:20;;;;;;;11.65;6.35;;;;;;;-8.15;58.99;101738.33;1692540;82;22127;-70
2023/01/08 05:27:47;;;;;;;12.25;6.85;;;;;;;-8.19;59.08;101739.13;1719644;82;21931;-71
2023/01/08 05:30:14;;;;;;;17.67;9.53;;;;;;;-8.20;58.97;101740.83;1694367;82;21018;-70
2023/01/08 05:32:41;;;;;;;14.43;7.95;;;;;;;-8.22;59.21;101741.61;1693514;83;21054;-71
2023/01/08 05:35:09;;;;;;;14.15;7.53;;;;;;;-8.23;59.20;101739.46;1695436;83;21501;-71
2023/01/08 05:37:36;;;;;;;13.75;6.95;;;;;;;-8.33;59.11;101749.09;1670129;85;22369;-69
2023/01/08 05:40:03;;;;;;;12.98;6.72;;;;;;;-8.33;59.11;101749.09;1646554;85;21898;-72
2023/01/08 05:42:34;;;;;;;14.83;8.08;;;;;;;-8.37;59.24;101746.07;1663089;85;21038;-71
2023/01/08 05:45:04;;;;;;;14.93;7.37;;;;;;;-8.41;59.53;101746.41;1670065;84;22271;-71
2023/01/08 05:47:31;;;;;;;13.98;8.13;;;;;;;-8.47;59.59;101755.69;1668029;85;21086;-72
2023/01/08 05:49:58;;;;;;;16.75;8.00;;;;;;;-8.51;59.73;101759.86;1660125;84;21019;-71
2023/01/08 05:52:25;;;;;;;13.68;7.75;;;;;;;-8.51;59.93;101761.56;1656356;85;21883;-71
2023/01/08 05:54:52;;;;;;;18.12;8.75;;;;;;;-8.52;60.13;101766.24;1659821;85;21106;-72
2023/01/08 05:57:19;;;;;;;16.60;8.68;;;;;;;-8.53;60.28;101769.64;1660659;85;21038;-71
2023/01/08 05:59:46;;;;;;;15.08;7.47;;;;;;;-8.53;60.28;101769.64;1663700;85;21067;-71
2023/01/08 06:02:13;;;;;;;14.38;7.90;;;;;;;-8.54;60.35;101766.63;1656693;85;21579;-72
2023/01/08 06:04:39;;;;;;;16.12;8.00;;;;;;;-8.54;60.35;101766.63;1667526;85;21921;-72
2023/01/08 06:07:06;;;;;;;14.38;7.55;;;;;;;-8.55;60.60;101764.91;1655097;85;21054;-72
2023/01/08 06:09:33;;;;;;;14.80;8.05;;;;;;;-8.53;60.68;101769.22;1666733;85;21035;-71
2023/01/08 06:11:59;;;;;;;17.20;7.85;;;;;;;-8.53;60.78;101771.78;1662439;84;20995;-74
2023/01/08 06:14:26;;;;;;;17.02;7.90;;;;;;;-8.49;60.95;101775.27;1661847;85;21599;-72
2023/01/08 06:16:53;;;;;;;12.78;7.03;;;;;;;-8.49;61.02;101769.75;1666579;85;22452;-71
2023/01/08 06:19:19;;;;;;;15.88;7.72;;;;;;;-8.49;61.13;101773.59;1663832;85;21055;-70
2023/01/08 06:21:46;;;;;;;13.72;8.30;;;;;;;-8.50;61.25;101773.53;1662101;84;21128;-71
2023/01/08 06:24:13;;;;;;;16.40;7.20;;;;;;;-8.46;61.38;101781.34;1663090;85;21078;-72
2023/01/08 06:26:39;;;;;;;18.67;9.15;;;;;;;-8.47;61.44;101785.15;1668415;84;21006;-72
2023/01/08 06:29:07;;;;;;;13.72;8.13;;;;;;;-8.46;61.57;101791.58;1674284;81;21928;-72
2023/01/08 06:31:34;;;;;;;14.87;8.28;;;;;;;-8.45;61.68;101784.34;1706159;81;21077;-72
2023/01/08 06:34:01;;;;;;;15.20;8.70;;;;;;;-8.41;61.77;101785.25;1706741;81;22298;-70
2023/01/08 06:36:27;;;;;;;17.77;8.70;;;;;;;-8.43;61.76;101781.80;1710655;81;21049;-72
2023/01/08 06:38:54;;;;;;;15.15;7.95;;;;;;;-8.46;61.75;101793.28;1704347;81;21530;-71
2023/01/08 06:41:21;;;;;;;14.93;7.58;;;;;;;-8.45;61.79;101796.29;1705073;81;21946;-71
2023/01/08 06:43:49;;;;;;;19.15;9.25;;;;;;;-8.45;61.73;101784.76;1702616;81;20999;-72
2023/01/08 06:46:16;;;;;;;19.37;9.40;;;;;;;-8.47;61.69;101792.84;1704158;81;21093;-71
2023/01/08 06:48:42;;;;;;;17.73;9.23;;;;;;;-8.44;61.73;101794.17;1719902;81;21030;-73
2023/01/08 06:51:10;;;;;;;17.98;8.33;;;;;;;-8.40;61.68;101793.39;1704315;81;21102;-71
2023/01/08 06:53:37;;;;;;;16.20;8.08;;;;;;;-8.37;61.33;101789.63;1706709;81;22306;-70
2023/01/08 06:56:06;;;;;;;16.17;8.10;;;;;;;-8.35;60.86;101790.94;1713524;81;20981;-71
2023/01/08 06:58:32;;;;;;;17.10;8.85;;;;;;;-8.35;60.61;101795.64;1712580;81;21084;-70
2023/01/08 07:00:59;;;;;;;15.78;9.28;;;;;;;-8.32;60.50;101798.22;1708784;81;21086;-70
2023/01/08 07:03:25;;;;;;;23.07;11.68;;;;;;;-8.25;60.41;101794.09;1702166;81;21069;-71
2023/01/08 07:05:52;;;;;;;30.20;17.23;;;;;;;-8.21;60.29;101795.87;1698159;81;21930;-71
2023/01/08 07:08:20;;;;;;;18.25;10.40;;;;;;;-8.18;60.08;101795.54;1695231;81;21053;-71
2023/01/08 07:10:46;;;;;;;14.38;8.48;;;;;;;-8.18;59.84;101797.23;1703886;81;21026;-70
2023/01/08 07:13:13;;;;;;;14.47;7.80;;;;;;;-8.16;59.81;101792.58;1710735;81;21864;-69
2023/01/08 07:15:41;;;;;;;13.00;6.75;;;;;;;-8.14;59.58;101792.61;1707525;81;21105;-70
2023/01/08 07:18:10;;;;;;;13.30;6.80;;;;;;;-8.14;59.43;101799.87;1706320;81;21901;-71
2023/01/08 07:20:36;;;;;;;14.18;7.40;;;;;;;-8.11;59.04;101796.08;1687605;81;21016;-71
2023/01/08 07:23:05;;;;;;;14.05;7.47;;;;;;;-8.13;58.87;101791.34;1702719;81;21132;-72
2023/01/08 07:25:33;;;;;;;17.37;8.38;;;;;;;-8.09;58.83;101789.31;1700724;81;21090;-71
2023/01/08 07:28:00;;;;;;;15.43;7.60;;;;;;;-8.10;58.74;101788.87;1702363;81;21070;-71
2023/01/08 07:30:28;;;;;;;18.02;7.75;;;;;;;-8.05;58.94;101794.06;1706853;81;22615;-71
2023/01/08 07:33:00;;;;;;;16.82;8.10;;;;;;;-8.01;59.02;101781.73;1692189;83;21087;-71
2023/01/08 07:35:26;;;;;;;14.68;7.47;;;;;;;-7.87;58.91;101796.98;1673985;83;21460;-71
2023/01/08 07:37:53;;;;;;;14.03;7.42;;;;;;;-7.87;58.91;101796.98;1664444;83;21083;-71
2023/01/08 07:40:19;;;;;;;15.08;7.00;;;;;;;-7.84;58.82;101789.33;1690258;83;21598;-71
2023/01/08 07:42:46;;;;;;;13.10;6.70;;;;;;;-7.80;59.01;101794.12;1698722;81;21931;-71
2023/01/08 07:45:13;;;;;;;13.03;7.12;;;;;;;-7.73;58.93;101801.06;1715334;83;21026;-71
2023/01/08 07:47:40;;;;;;;15.05;7.70;;;;;;;-7.71;58.81;101791.72;1710847;83;21411;-72
2023/01/08 07:50:08;;;;;;;16.00;7.25;;;;;;;-7.69;58.73;101791.33;1709509;81;21551;-70
2023/01/08 07:52:41;;;;;;;13.98;7.85;;;;;;;-7.69;58.26;101791.75;1709908;83;21079;-71
2023/01/08 07:55:09;;;;;;;15.93;8.78;;;;;;;-7.69;58.26;101791.75;1707391;83;21958;-70
2023/01/08 07:57:36;;;;;;;17.37;7.85;;;;;;;-7.62;58.48;101794.88;1717344;81;21018;-71
2023/01/08 08:00:05;;;;;;;17.42;8.70;;;;;;;-7.55;58.54;101795.40;1698275;83;21123;-70
2023/01/08 08:02:34;;;;;;;18.45;8.63;;;;;;;-7.47;58.38;101798.10;1707197;81;21039;-71
2023/01/08 08:05:05;;;;;;;16.42;8.73;;;;;;;-7.42;58.16;101801.20;1717889;81;21135;-70
2023/01/08 08:07:32;;;;;;;16.80;8.75;;;;;;;-7.40;58.02;101807.22;1699300;81;21966;-71
2023/01/08 08:09:59;;;;;;;18.87;9.60;;;;;;;-7.36;58.04;101808.12;1690462;82;20996;-71
2023/01/08 08:12:25;;;;;;;17.87;9.50;;;;;;;-7.34;57.92;101801.31;1705534;82;21039;-71
2023/01/08 08:14:52;;;;;;;22.73;10.85;;;;;;;-7.29;58.04;101808.68;1716492;82;21118;-71
2023/01/08 08:17:18;;;;;;;24.80;10.78;;;;;;;-7.23;57.83;101813.50;1708936;82;21046;-71
2023/01/08 08:19:46;;;;;;;20.08;9.55;;;;;;;-7.19;57.76;101814.41;1711568;82;21964;-71
2023/01/08 08:22:12;;;;;;;17.02;9.30;;;;;;;-7.12;57.85;101814.95;1708993;82;21093;-71
2023/01/08 08:24:39;;;;;;;18.07;9.48;;;;;;;-7.02;58.19;101814.68;1703243;82;21554;-71
2023/01/08 08:27:06;;;;;;;18.42;9.73;;;;;;;-6.95;57.70;101817.38;1708488;82;21520;-71
2023/01/08 08:29:32;;;;;;;16.37;9.33;;;;;;;-6.92;57.54;101818.69;1682887;82;21634;-72
2023/01/08 08:31:59;;;;;;;17.52;9.15;;;;;;;-6.89;57.18;101820.86;1717788;81;22319;-71
2023/01/08 08:34:26;;;;;;;22.27;9.98;;;;;;;-6.92;56.83;101820.40;1712384;81;21060;-71
2023/01/08 08:36:52;;;;;;;19.42;9.70;;;;;;;-6.94;56.54;101813.09;1687237;83;21502;-71
2023/01/08 08:39:19;;;;;;;22.55;10.85;;;;;;;-6.93;56.57;101814.82;1697313;82;21479;-71
2023/01/08 08:41:46;;;;;;;20.25;10.28;;;;;;;-6.92;56.67;101809.70;1689797;82;21031;-70
2023/01/08 08:44:12;;;;;;;28.75;11.53;;;;;;;-6.84;56.82;101807.25;1703214;84;21938;-68
2023/01/08 08:46:39;;;;;;;18.95;10.20;;;;;;;-6.75;56.67;101801.39;1696680;84;21011;-70
2023/01/08 08:49:06;;;;;;;20.35;9.73;;;;;;;-6.66;56.80;101803.67;1693712;84;21016;-69
2023/01/08 08:51:32;;;;;;;24.57;12.80;;;;;;;-6.60;56.28;101796.44;1690693;82;21506;-71
2023/01/08 08:54:00;;;;;;;32.63;13.48;;;;;;;-6.56;56.39;101799.52;1718635;82;21129;-72
2023/01/08 08:56:28;;;;;;;28.02;11.80;;;;;;;-6.48;56.59;101793.16;1706861;81;22063;-70
2023/01/08 08:58:57;;;;;;;36.73;14.90;;;;;;;-6.37;56.55;101797.62;1707235;81;21447;-71
2023/01/08 09:01:24;;;;;;;32.50;14.78;;;;;;;-6.31;56.21;101791.67;1706896;81;21161;-73
2023/01/08 09:03:51;;;;;;;32.40;14.03;;;;;;;-6.26;56.43;101792.61;1705717;81;21074;-70
2023/01/08 09:06:18;;;;;;;31.15;14.00;;;;;;;-6.16;56.51;101787.16;1705883;81;21103;-70
2023/01/08 09:08:44;;;;;;;31.30;14.00;;;;;;;-6.05;56.44;101784.27;1704123;81;21821;-71
2023/01/08 09:11:10;;;;;;;32.95;14.18;;;;;;;-5.99;56.23;101786.03;1704681;81;21485;-70
2023/01/08 09:13:37;;;;;;;31.27;12.88;;;;;;;-5.95;56.16;101778.80;1712360;81;20959;-71
2023/01/08 09:16:05;;;;;;;19.98;10.53;;;;;;;-5.88;56.29;101776.29;1706766;81;21101;-71
2023/01/08 09:18:33;;;;;;;22.07;11.65;;;;;;;-5.79;56.13;101766.09;1703721;82;21137;-71
2023/01/08 09:21:05;;;;;;;23.32;12.58;;;;;;;-5.73;55.96;101771.70;1704646;82;22231;-69
2023/01/08 09:23:34;;;;;;;21.52;11.97;;;;;;;-5.66;55.81;101772.20;1704976;82;21070;-69
2023/01/08 09:26:04;;;;;;;23.35;12.28;;;;;;;-5.61;55.55;101768.38;1724559;82;20972;-71
2023/01/08 09:28:32;;;;;;;21.82;10.80;;;;;;;-5.59;55.45;101767.56;1721400;82;21087;-68
2023/01/08 09:31:02;;;;;;;25.68;12.40;;;;;;;-5.53;55.37;101765.45;1713184;81;21485;-69
2023/01/08 09:33:29;;;;;;;28.15;14.38;;;;;;;-5.47;55.29;101770.66;1719727;81;21926;-68
2023/01/08 09:35:56;;;;;;;29.70;13.98;;;;;;;-5.44;55.14;101761.66;1721367;82;21039;-68
2023/01/08 09:38:22;;;;;;;32.33;14.60;;;;;;;-5.37;55.12;101759.59;1717609;83;21065;-69
2023/01/08 09:40:56;;;;;;;30.23;13.53;;;;;;;-5.27;55.28;101749.79;1724946;81;21016;-69
2023/01/08 09:43:25;;;;;;;35.15;15.88;;;;;;;-5.16;55.14;101748.58;1688935;83;21165;-69
2023/01/08 09:45:55;;;;;;;29.60;14.73;;;;;;;-5.05;55.08;101742.20;1717801;81;21961;-69
2023/01/08 09:48:27;;;;;;;31.73;14.05;;;;;;;-4.95;54.82;101743.55;1708802;81;21660;-69
2023/01/08 09:50:54;;;;;;;32.80;13.80;;;;;;;-4.82;54.87;101742.36;1714999;83;21054;-68
2023/01/08 09:53:21;;;;;;;33.73;15.88;;;;;;;-4.68;54.55;101738.98;1690471;83;21063;-69
2023/01/08 09:56:00;;;;;;;35.52;15.13;;;;;;;-4.55;54.50;101728.72;1684746;83;21574;-68
2023/01/08 09:58:39;;;;;;;38.78;16.60;;;;;;;-4.41;54.15;101730.52;1688806;83;21877;-68
2023/01/08 10:01:06;;;;;;;30.15;14.43;;;;;;;-4.36;53.32;101727.50;1712142;83;21066;-68
2023/01/08 10:04:06;;;;;;;29.72;12.85;;;;;;;-4.35;52.91;101732.23;1713595;81;21034;-69
2023/01/08 10:06:33;;;;;;;30.37;13.58;;;;;;;-4.38;52.96;101724.50;1700130;83;21542;-70
2023/01/08 10:09:00;;;;;;;27.45;13.35;;;;;;;-4.27;52.85;101728.39;1703109;83;21050;-69
2023/01/08 10:11:31;;;;;;;28.65;14.40;;;;;;;-4.22;52.41;101727.56;1690052;83;21807;-69
2023/01/08 10:13:59;;;;;;;27.45;13.50;;;;;;;-4.18;52.34;101727.13;1693267;83;21887;-69
2023/01/08 10:16:36;;;;;;;28.17;13.83;;;;;;;-4.07;52.75;101718.55;1715929;83;21520;-70
2023/01/08 10:19:03;;;;;;;35.43;15.23;;;;;;;-3.87;52.52;101717.73;1716082;81;21075;-70
2023/01/08 10:21:39;;;;;;;35.00;16.00;;;;;;;-3.77;52.03;101718.17;1706364;83;21121;-70
2023/01/08 10:24:06;;;;;;;31.10;15.43;;;;;;;-3.74;51.55;101722.06;1714899;82;22589;-69
2023/01/08 10:26:35;;;;;;;28.25;14.73;;;;;;;-3.71;51.55;101714.31;1716085;83;21043;-69
2023/01/08 10:29:16;;;;;;;32.73;15.40;;;;;;;-3.66;50.92;101715.19;1715969;82;21054;-70
2023/01/08 10:31:50;;;;;;;46.18;21.00;;;;;;;-3.67;50.86;101712.15;1676037;83;21070;-69
2023/01/08 10:34:44;;;;;;;48.00;25.35;;;;;;;-3.62;50.93;101708.30;1718644;82;21025;-69
2023/01/08 10:37:29;;;;;;;35.98;17.73;;;;;;;-3.54;50.94;101707.87;1721946;81;22422;-69
2023/01/08 10:40:01;;;;;;;30.55;15.40;;;;;;;-3.40;51.24;101709.14;1714288;82;21035;-69
2023/01/08 10:42:28;;;;;;;34.48;15.18;;;;;;;-3.26;51.11;101712.59;1720420;82;21070;-69
2023/01/08 10:45:01;;;;;;;29.60;13.98;;;;;;;-3.18;50.45;101712.15;1655917;84;21078;-70
2023/01/08 10:47:30;;;;;;;27.05;13.03;;;;;;;-3.20;50.28;101700.50;1713759;81;21016;-69
2023/01/08 10:49:57;;;;;;;24.67;13.48;;;;;;;-3.16;50.25;101700.08;1723471;81;21958;-68
2023/01/08 10:52:32;;;;;;;23.12;13.08;;;;;;;-3.08;50.45;101694.47;1688469;83;21076;-67
2023/01/08 10:55:24;;;;;;;27.02;13.55;;;;;;;-2.97;50.37;101691.42;1705466;83;21059;-68
2023/01/08 10:58:10;;;;;;;21.00;12.05;;;;;;;-2.87;49.70;101688.38;1691567;83;21502;-71
2023/01/08 11:00:37;;;;;;;31.62;13.90;;;;;;;-2.86;49.56;101685.36;1699123;82;20964;-70
2023/01/08 11:03:06;;;;;;;31.95;15.28;;;;;;;-2.81;49.85;101683.16;1695180;82;21781;-71
2023/01/08 11:05:38;;;;;;;28.50;13.68;;;;;;;-2.69;49.52;101680.98;1704277;83;21641;-71
2023/01/08 11:08:14;;;;;;;26.73;13.30;;;;;;;-2.64;49.38;101674.91;1698054;82;21015;-71
2023/01/08 11:10:42;;;;;;;24.05;13.10;;;;;;;-2.56;49.14;101673.59;1706326;82;21126;-71
2023/01/08 11:13:14;;;;;;;27.87;13.15;;;;;;;-2.54;49.16;101670.99;1703943;83;21007;-71
2023/01/08 11:15:40;;;;;;;24.95;12.93;;;;;;;-2.49;48.94;101672.70;1701969;83;21950;-72
2023/01/08 11:18:24;;;;;;;37.70;14.35;;;;;;;-2.42;48.82;101671.78;1701614;82;21019;-69
2023/01/08 11:20:52;;;;;;;27.53;15.37;;;;;;;-2.42;47.78;101670.92;1701566;83;21066;-71
2023/01/08 11:23:25;;;;;;;30.57;14.47;;;;;;;-2.59;47.90;101665.86;1696364;83;21660;-69
2023/01/08 11:26:07;;;;;;;22.90;13.62;;;;;;;-2.60;48.30;101675.34;1702091;82;21980;-71
2023/01/08 11:29:00;;;;;;;34.15;19.05;;;;;;;-2.46;48.63;101669.23;1715753;81;22570;-71
2023/01/08 11:31:44;;;;;;;26.52;15.85;;;;;;;-2.31;48.25;101663.98;1696491;83;21066;-71